sensor_id;sensor_type;location;lat;lon;timestamp;temperature;humidity
40932;DHT22;36257;46.052;12.540;2023-02-28T00:00:26;3.80;79.50
40932;DHT22;36257;46.052;12.540;2023-02-28T00:02:52;3.70;79.80
40932;DHT22;36257;46.052;12.540;2023-02-28T00:05:19;3.60;79.60
40932;DHT22;36257;46.052;12.540;2023-02-28T00:07:46;3.50;80.20
40932;DHT22;36257;46.052;12.540;2023-02-28T00:10:14;3.50;80.10
40932;DHT22;36257;46.052;12.540;2023-02-28T00:12:40;3.50;79.00
40932;DHT22;36257;46.052;12.540;2023-02-28T00:15:10;3.50;78.30
40932;DHT22;36257;46.052;12.540;2023-02-28T00:17:37;3.50;77.90
40932;DHT22;36257;46.052;12.540;2023-02-28T00:20:03;3.50;78.30
40932;DHT22;36257;46.052;12.540;2023-02-28T00:22:33;3.50;78.20
40932;DHT22;36257;46.052;12.540;2023-02-28T00:24:59;3.60;78.40
40932;DHT22;36257;46.052;12.540;2023-02-28T00:27:24;3.50;77.40
40932;DHT22;36257;46.052;12.540;2023-02-28T00:29:50;3.50;77.80
40932;DHT22;36257;46.052;12.540;2023-02-28T00:32:16;3.50;78.00
40932;DHT22;36257;46.052;12.540;2023-02-28T00:34:41;3.50;77.50
40932;DHT22;36257;46.052;12.540;2023-02-28T00:37:08;3.50;77.60
40932;DHT22;36257;46.052;12.540;2023-02-28T00:39:35;3.50;77.80
40932;DHT22;36257;46.052;12.540;2023-02-28T00:42:01;3.50;77.50
40932;DHT22;36257;46.052;12.540;2023-02-28T00:44:28;3.60;77.90
40932;DHT22;36257;46.052;12.540;2023-02-28T00:46:53;3.50;77.50
40932;DHT22;36257;46.052;12.540;2023-02-28T00:49:20;3.60;77.70
40932;DHT22;36257;46.052;12.540;2023-02-28T00:51:46;3.60;77.70
40932;DHT22;36257;46.052;12.540;2023-02-28T00:54:12;3.60;77.80
40932;DHT22;36257;46.052;12.540;2023-02-28T00:56:37;3.70;77.60
40932;DHT22;36257;46.052;12.540;2023-02-28T00:59:03;3.70;77.70
40932;DHT22;36257;46.052;12.540;2023-02-28T01:01:29;3.70;77.70
40932;DHT22;36257;46.052;12.540;2023-02-28T01:03:54;3.80;77.90
40932;DHT22;36257;46.052;12.540;2023-02-28T01:06:20;3.80;78.20
40932;DHT22;36257;46.052;12.540;2023-02-28T01:08:46;3.90;78.30
40932;DHT22;36257;46.052;12.540;2023-02-28T01:11:14;4.00;78.50
40932;DHT22;36257;46.052;12.540;2023-02-28T01:13:40;3.90;78.70
40932;DHT22;36257;46.052;12.540;2023-02-28T01:16:06;3.80;78.50
40932;DHT22;36257;46.052;12.540;2023-02-28T01:18:32;3.80;78.20
40932;DHT22;36257;46.052;12.540;2023-02-28T01:21:02;3.80;78.10
40932;DHT22;36257;46.052;12.540;2023-02-28T01:23:28;3.80;77.90
40932;DHT22;36257;46.052;12.540;2023-02-28T01:25:53;3.80;78.30
40932;DHT22;36257;46.052;12.540;2023-02-28T01:28:19;3.80;79.10
40932;DHT22;36257;46.052;12.540;2023-02-28T01:30:51;3.80;79.10
40932;DHT22;36257;46.052;12.540;2023-02-28T01:33:17;3.80;79.10
40932;DHT22;36257;46.052;12.540;2023-02-28T01:35:42;3.80;78.30
40932;DHT22;36257;46.052;12.540;2023-02-28T01:38:08;3.90;77.00
40932;DHT22;36257;46.052;12.540;2023-02-28T01:40:33;3.90;76.90
40932;DHT22;36257;46.052;12.540;2023-02-28T01:42:59;3.90;76.80
40932;DHT22;36257;46.052;12.540;2023-02-28T01:47:54;4.00;77.20
40932;DHT22;36257;46.052;12.540;2023-02-28T01:50:23;4.00;77.10
40932;DHT22;36257;46.052;12.540;2023-02-28T01:52:51;4.00;77.60
40932;DHT22;36257;46.052;12.540;2023-02-28T01:55:21;4.00;77.50
40932;DHT22;36257;46.052;12.540;2023-02-28T01:57:51;4.00;77.90
40932;DHT22;36257;46.052;12.540;2023-02-28T02:00:20;4.00;78.20
40932;DHT22;36257;46.052;12.540;2023-02-28T02:02:50;4.10;78.70
40932;DHT22;36257;46.052;12.540;2023-02-28T02:05:21;4.10;78.60
40932;DHT22;36257;46.052;12.540;2023-02-28T02:07:54;4.00;79.20
40932;DHT22;36257;46.052;12.540;2023-02-28T02:10:32;4.00;78.10
40932;DHT22;36257;46.052;12.540;2023-02-28T02:32:28;4.20;74.90
40932;DHT22;36257;46.052;12.540;2023-02-28T02:37:52;4.30;74.40
40932;DHT22;36257;46.052;12.540;2023-02-28T02:40:23;4.30;74.40
40932;DHT22;36257;46.052;12.540;2023-02-28T02:45:34;4.40;74.60
40932;DHT22;36257;46.052;12.540;2023-02-28T02:48:05;4.40;74.20
40932;DHT22;36257;46.052;12.540;2023-02-28T02:50:37;4.40;74.90
40932;DHT22;36257;46.052;12.540;2023-02-28T02:53:04;4.40;74.60
40932;DHT22;36257;46.052;12.540;2023-02-28T02:55:37;4.40;74.50
40932;DHT22;36257;46.052;12.540;2023-02-28T02:58:07;4.40;73.80
40932;DHT22;36257;46.052;12.540;2023-02-28T03:00:37;4.50;74.40
40932;DHT22;36257;46.052;12.540;2023-02-28T03:03:05;4.40;74.90
40932;DHT22;36257;46.052;12.540;2023-02-28T03:05:49;4.40;75.20
40932;DHT22;36257;46.052;12.540;2023-02-28T03:08:15;4.40;75.40
40932;DHT22;36257;46.052;12.540;2023-02-28T03:10:43;4.40;75.30
40932;DHT22;36257;46.052;12.540;2023-02-28T03:16:26;4.50;74.90
40932;DHT22;36257;46.052;12.540;2023-02-28T03:19:22;4.40;75.80
40932;DHT22;36257;46.052;12.540;2023-02-28T03:25:13;4.40;76.60
40932;DHT22;36257;46.052;12.540;2023-02-28T03:28:05;4.40;77.00
40932;DHT22;36257;46.052;12.540;2023-02-28T03:33:23;4.40;77.40
40932;DHT22;36257;46.052;12.540;2023-02-28T03:35:55;4.40;77.50
40932;DHT22;36257;46.052;12.540;2023-02-28T03:38:49;4.30;77.30
40932;DHT22;36257;46.052;12.540;2023-02-28T03:41:21;4.30;76.50
40932;DHT22;36257;46.052;12.540;2023-02-28T03:43:57;4.30;76.40
40932;DHT22;36257;46.052;12.540;2023-02-28T03:46:26;4.20;76.70
40932;DHT22;36257;46.052;12.540;2023-02-28T03:49:00;4.30;77.30
40932;DHT22;36257;46.052;12.540;2023-02-28T03:51:29;4.30;77.70
40932;DHT22;36257;46.052;12.540;2023-02-28T03:53:59;4.30;76.70
40932;DHT22;36257;46.052;12.540;2023-02-28T03:56:31;4.30;75.30
40932;DHT22;36257;46.052;12.540;2023-02-28T03:59:00;4.30;75.00
40932;DHT22;36257;46.052;12.540;2023-02-28T04:01:45;4.30;74.80
40932;DHT22;36257;46.052;12.540;2023-02-28T04:04:12;4.30;74.90
40932;DHT22;36257;46.052;12.540;2023-02-28T04:06:38;4.30;75.00
40932;DHT22;36257;46.052;12.540;2023-02-28T04:09:05;4.30;75.20
40932;DHT22;36257;46.052;12.540;2023-02-28T04:11:49;4.30;75.70
40932;DHT22;36257;46.052;12.540;2023-02-28T04:14:17;4.30;75.80
40932;DHT22;36257;46.052;12.540;2023-02-28T04:16:43;4.40;75.60
40932;DHT22;36257;46.052;12.540;2023-02-28T04:19:11;4.40;76.20
40932;DHT22;36257;46.052;12.540;2023-02-28T04:21:39;4.30;75.90
40932;DHT22;36257;46.052;12.540;2023-02-28T04:24:07;4.30;75.50
40932;DHT22;36257;46.052;12.540;2023-02-28T04:26:35;4.30;76.60
40932;DHT22;36257;46.052;12.540;2023-02-28T04:29:01;4.40;76.50
40932;DHT22;36257;46.052;12.540;2023-02-28T04:31:27;4.40;76.50
40932;DHT22;36257;46.052;12.540;2023-02-28T04:33:52;4.30;76.60
40932;DHT22;36257;46.052;12.540;2023-02-28T04:36:18;4.30;77.20
40932;DHT22;36257;46.052;12.540;2023-02-28T04:38:45;4.20;78.60
40932;DHT22;36257;46.052;12.540;2023-02-28T04:41:11;4.30;78.50
40932;DHT22;36257;46.052;12.540;2023-02-28T04:43:37;4.30;78.80
40932;DHT22;36257;46.052;12.540;2023-02-28T04:46:04;4.20;79.50
40932;DHT22;36257;46.052;12.540;2023-02-28T04:48:32;4.20;79.20
40932;DHT22;36257;46.052;12.540;2023-02-28T04:51:03;4.20;79.50
40932;DHT22;36257;46.052;12.540;2023-02-28T04:53:29;4.10;78.90
40932;DHT22;36257;46.052;12.540;2023-02-28T04:55:56;4.10;76.30
40932;DHT22;36257;46.052;12.540;2023-02-28T04:58:22;4.00;78.80
40932;DHT22;36257;46.052;12.540;2023-02-28T05:00:51;4.00;79.20
40932;DHT22;36257;46.052;12.540;2023-02-28T05:03:17;4.00;79.60
40932;DHT22;36257;46.052;12.540;2023-02-28T05:05:42;4.00;79.00
40932;DHT22;36257;46.052;12.540;2023-02-28T05:08:08;3.90;79.10
40932;DHT22;36257;46.052;12.540;2023-02-28T05:10:35;3.90;79.20
40932;DHT22;36257;46.052;12.540;2023-02-28T05:13:00;3.90;79.60
40932;DHT22;36257;46.052;12.540;2023-02-28T05:15:26;3.90;79.50
40932;DHT22;36257;46.052;12.540;2023-02-28T05:17:52;3.90;79.60
40932;DHT22;36257;46.052;12.540;2023-02-28T05:20:17;3.90;79.90
40932;DHT22;36257;46.052;12.540;2023-02-28T05:22:44;3.80;80.50
40932;DHT22;36257;46.052;12.540;2023-02-28T05:25:17;3.80;80.70
40932;DHT22;36257;46.052;12.540;2023-02-28T05:27:43;3.90;79.10
40932;DHT22;36257;46.052;12.540;2023-02-28T05:30:11;3.90;78.80
40932;DHT22;36257;46.052;12.540;2023-02-28T05:32:38;3.80;79.60
40932;DHT22;36257;46.052;12.540;2023-02-28T05:35:04;3.70;80.00
40932;DHT22;36257;46.052;12.540;2023-02-28T05:37:30;3.70;80.30
40932;DHT22;36257;46.052;12.540;2023-02-28T05:39:56;3.70;80.60
40932;DHT22;36257;46.052;12.540;2023-02-28T05:42:21;3.70;80.50
40932;DHT22;36257;46.052;12.540;2023-02-28T05:44:47;3.70;80.40
40932;DHT22;36257;46.052;12.540;2023-02-28T05:47:12;3.60;80.10
40932;DHT22;36257;46.052;12.540;2023-02-28T05:49:41;3.60;79.60
40932;DHT22;36257;46.052;12.540;2023-02-28T05:52:07;3.60;79.30
40932;DHT22;36257;46.052;12.540;2023-02-28T05:54:33;3.50;78.60
40932;DHT22;36257;46.052;12.540;2023-02-28T05:56:58;3.40;78.90
40932;DHT22;36257;46.052;12.540;2023-02-28T05:59:24;3.40;79.80
40932;DHT22;36257;46.052;12.540;2023-02-28T06:01:49;3.40;80.10
40932;DHT22;36257;46.052;12.540;2023-02-28T06:04:18;3.30;80.40
40932;DHT22;36257;46.052;12.540;2023-02-28T06:06:48;3.30;80.50
40932;DHT22;36257;46.052;12.540;2023-02-28T06:09:15;3.30;81.10
40932;DHT22;36257;46.052;12.540;2023-02-28T06:11:41;3.30;81.20
40932;DHT22;36257;46.052;12.540;2023-02-28T06:14:07;3.30;81.50
40932;DHT22;36257;46.052;12.540;2023-02-28T06:16:33;3.20;81.60
40932;DHT22;36257;46.052;12.540;2023-02-28T06:19:02;3.20;81.50
40932;DHT22;36257;46.052;12.540;2023-02-28T06:21:28;3.30;81.20
40932;DHT22;36257;46.052;12.540;2023-02-28T06:23:55;3.30;81.70
40932;DHT22;36257;46.052;12.540;2023-02-28T06:26:21;3.40;81.60
40932;DHT22;36257;46.052;12.540;2023-02-28T06:28:47;3.40;81.60
40932;DHT22;36257;46.052;12.540;2023-02-28T06:31:15;3.40;81.60
40932;DHT22;36257;46.052;12.540;2023-02-28T06:33:42;3.40;81.90
40932;DHT22;36257;46.052;12.540;2023-02-28T06:36:09;3.50;82.20
40932;DHT22;36257;46.052;12.540;2023-02-28T06:38:36;3.60;81.40
40932;DHT22;36257;46.052;12.540;2023-02-28T06:41:02;3.60;80.30
40932;DHT22;36257;46.052;12.540;2023-02-28T06:43:30;3.70;81.00
40932;DHT22;36257;46.052;12.540;2023-02-28T06:45:57;3.80;79.60
40932;DHT22;36257;46.052;12.540;2023-02-28T06:48:23;3.80;79.60
40932;DHT22;36257;46.052;12.540;2023-02-28T06:50:49;3.80;80.40
40932;DHT22;36257;46.052;12.540;2023-02-28T06:53:15;3.90;79.90
40932;DHT22;36257;46.052;12.540;2023-02-28T06:55:41;4.00;79.50
40932;DHT22;36257;46.052;12.540;2023-02-28T06:58:07;4.00;79.90
40932;DHT22;36257;46.052;12.540;2023-02-28T07:00:43;4.00;80.20
40932;DHT22;36257;46.052;12.540;2023-02-28T07:03:10;4.10;80.40
40932;DHT22;36257;46.052;12.540;2023-02-28T07:05:36;4.10;80.00
40932;DHT22;36257;46.052;12.540;2023-02-28T07:08:03;4.30;79.70
40932;DHT22;36257;46.052;12.540;2023-02-28T07:10:30;4.40;79.30
40932;DHT22;36257;46.052;12.540;2023-02-28T07:12:55;4.50;79.20
40932;DHT22;36257;46.052;12.540;2023-02-28T07:15:21;4.60;81.40
40932;DHT22;36257;46.052;12.540;2023-02-28T07:17:47;4.70;80.30
40932;DHT22;36257;46.052;12.540;2023-02-28T07:20:13;4.90;78.50
40932;DHT22;36257;46.052;12.540;2023-02-28T07:22:38;5.00;76.70
40932;DHT22;36257;46.052;12.540;2023-02-28T07:25:05;5.20;76.00
40932;DHT22;36257;46.052;12.540;2023-02-28T07:27:31;5.30;77.30
40932;DHT22;36257;46.052;12.540;2023-02-28T07:29:57;5.50;75.90
40932;DHT22;36257;46.052;12.540;2023-02-28T07:32:22;5.70;75.90
40932;DHT22;36257;46.052;12.540;2023-02-28T07:34:48;5.90;72.80
40932;DHT22;36257;46.052;12.540;2023-02-28T07:37:14;6.10;72.60
40932;DHT22;36257;46.052;12.540;2023-02-28T07:39:40;6.40;69.80
40932;DHT22;36257;46.052;12.540;2023-02-28T07:42:09;6.50;70.10
40932;DHT22;36257;46.052;12.540;2023-02-28T07:44:37;6.70;69.30
40932;DHT22;36257;46.052;12.540;2023-02-28T07:47:09;6.80;69.10
40932;DHT22;36257;46.052;12.540;2023-02-28T07:49:38;7.00;69.40
40932;DHT22;36257;46.052;12.540;2023-02-28T07:52:07;7.20;69.30
40932;DHT22;36257;46.052;12.540;2023-02-28T07:54:33;7.20;68.60
40932;DHT22;36257;46.052;12.540;2023-02-28T07:56:59;7.40;68.10
40932;DHT22;36257;46.052;12.540;2023-02-28T07:59:25;7.80;68.30
40932;DHT22;36257;46.052;12.540;2023-02-28T08:01:50;8.30;67.20
40932;DHT22;36257;46.052;12.540;2023-02-28T08:04:17;8.50;66.90
40932;DHT22;36257;46.052;12.540;2023-02-28T08:06:44;8.80;66.80
40932;DHT22;36257;46.052;12.540;2023-02-28T08:09:09;9.20;65.40
40932;DHT22;36257;46.052;12.540;2023-02-28T08:11:35;9.40;64.90
40932;DHT22;36257;46.052;12.540;2023-02-28T08:14:02;9.60;64.20
40932;DHT22;36257;46.052;12.540;2023-02-28T08:16:27;9.60;63.70
40932;DHT22;36257;46.052;12.540;2023-02-28T08:18:53;9.80;62.50
40932;DHT22;36257;46.052;12.540;2023-02-28T08:21:20;9.80;63.00
40932;DHT22;36257;46.052;12.540;2023-02-28T08:23:50;10.00;63.20
40932;DHT22;36257;46.052;12.540;2023-02-28T08:26:17;10.10;62.40
40932;DHT22;36257;46.052;12.540;2023-02-28T08:28:43;10.10;61.70
40932;DHT22;36257;46.052;12.540;2023-02-28T08:31:12;10.30;61.90
40932;DHT22;36257;46.052;12.540;2023-02-28T08:33:39;10.40;61.70
40932;DHT22;36257;46.052;12.540;2023-02-28T08:36:06;10.70;61.00
40932;DHT22;36257;46.052;12.540;2023-02-28T08:38:31;10.70;61.00
40932;DHT22;36257;46.052;12.540;2023-02-28T08:41:02;10.90;60.50
40932;DHT22;36257;46.052;12.540;2023-02-28T08:43:28;11.10;60.10
40932;DHT22;36257;46.052;12.540;2023-02-28T08:45:55;11.20;60.10
40932;DHT22;36257;46.052;12.540;2023-02-28T08:48:28;11.40;60.30
40932;DHT22;36257;46.052;12.540;2023-02-28T08:53:21;11.30;59.60
40932;DHT22;36257;46.052;12.540;2023-02-28T08:55:46;11.30;59.00
40932;DHT22;36257;46.052;12.540;2023-02-28T08:58:12;11.20;59.80
40932;DHT22;36257;46.052;12.540;2023-02-28T09:00:38;11.10;59.90
40932;DHT22;36257;46.052;12.540;2023-02-28T09:03:03;11.30;60.70
40932;DHT22;36257;46.052;12.540;2023-02-28T09:05:29;11.50;59.60
40932;DHT22;36257;46.052;12.540;2023-02-28T09:07:55;11.60;59.00
40932;DHT22;36257;46.052;12.540;2023-02-28T09:10:20;11.60;59.10
40932;DHT22;36257;46.052;12.540;2023-02-28T09:12:46;11.50;60.10
40932;DHT22;36257;46.052;12.540;2023-02-28T09:15:12;11.40;59.20
40932;DHT22;36257;46.052;12.540;2023-02-28T09:17:38;11.20;59.20
40932;DHT22;36257;46.052;12.540;2023-02-28T09:20:04;11.30;59.80
40932;DHT22;36257;46.052;12.540;2023-02-28T09:22:30;11.40;59.30
40932;DHT22;36257;46.052;12.540;2023-02-28T09:24:56;11.20;59.40
40932;DHT22;36257;46.052;12.540;2023-02-28T09:27:22;11.20;59.60
40932;DHT22;36257;46.052;12.540;2023-02-28T09:29:47;11.10;59.10
40932;DHT22;36257;46.052;12.540;2023-02-28T09:32:13;11.30;59.70
40932;DHT22;36257;46.052;12.540;2023-02-28T09:34:39;11.30;58.70
40932;DHT22;36257;46.052;12.540;2023-02-28T09:37:04;11.30;59.80
40932;DHT22;36257;46.052;12.540;2023-02-28T09:39:30;11.40;59.80
40932;DHT22;36257;46.052;12.540;2023-02-28T09:41:57;11.50;60.70
40932;DHT22;36257;46.052;12.540;2023-02-28T09:44:43;11.70;58.80
40932;DHT22;36257;46.052;12.540;2023-02-28T09:49:50;11.80;58.20
40932;DHT22;36257;46.052;12.540;2023-02-28T09:52:22;11.90;57.70
40932;DHT22;36257;46.052;12.540;2023-02-28T09:54:48;12.00;58.00
40932;DHT22;36257;46.052;12.540;2023-02-28T09:59:57;12.20;58.40
40932;DHT22;36257;46.052;12.540;2023-02-28T10:05:43;12.30;57.60
40932;DHT22;36257;46.052;12.540;2023-02-28T10:08:19;12.10;57.50
40932;DHT22;36257;46.052;12.540;2023-02-28T10:11:02;12.00;59.20
40932;DHT22;36257;46.052;12.540;2023-02-28T10:16:52;12.70;58.50
40932;DHT22;36257;46.052;12.540;2023-02-28T10:19:24;13.00;57.10
40932;DHT22;36257;46.052;12.540;2023-02-28T10:22:17;13.20;57.50
40932;DHT22;36257;46.052;12.540;2023-02-28T10:24:52;13.50;55.80
40932;DHT22;36257;46.052;12.540;2023-02-28T10:27:25;13.50;55.90
40932;DHT22;36257;46.052;12.540;2023-02-28T10:29:56;13.60;54.90
40932;DHT22;36257;46.052;12.540;2023-02-28T10:32:25;13.60;54.90
40932;DHT22;36257;46.052;12.540;2023-02-28T10:37:38;13.10;56.60
40932;DHT22;36257;46.052;12.540;2023-02-28T10:45:38;13.50;56.00
40932;DHT22;36257;46.052;12.540;2023-02-28T10:48:26;13.70;55.90
40932;DHT22;36257;46.052;12.540;2023-02-28T10:50:53;14.10;55.40
40932;DHT22;36257;46.052;12.540;2023-02-28T10:58:29;14.20;53.50
40932;DHT22;36257;46.052;12.540;2023-02-28T11:00:56;14.20;54.40
40932;DHT22;36257;46.052;12.540;2023-02-28T11:03:33;14.00;54.80
40932;DHT22;36257;46.052;12.540;2023-02-28T11:06:07;13.90;53.90
40932;DHT22;36257;46.052;12.540;2023-02-28T11:08:51;13.70;55.00
40932;DHT22;36257;46.052;12.540;2023-02-28T11:11:17;13.90;56.10
40932;DHT22;36257;46.052;12.540;2023-02-28T11:13:50;14.00;53.50
40932;DHT22;36257;46.052;12.540;2023-02-28T11:16:16;14.30;53.90
40932;DHT22;36257;46.052;12.540;2023-02-28T11:18:50;14.40;53.60
40932;DHT22;36257;46.052;12.540;2023-02-28T11:23:52;14.70;53.40
40932;DHT22;36257;46.052;12.540;2023-02-28T11:26:37;14.60;53.40
40932;DHT22;36257;46.052;12.540;2023-02-28T11:29:21;14.80;54.40
40932;DHT22;36257;46.052;12.540;2023-02-28T11:32:18;14.90;52.30
40932;DHT22;36257;46.052;12.540;2023-02-28T11:34:45;14.80;52.60
40932;DHT22;36257;46.052;12.540;2023-02-28T11:37:18;15.00;53.20
40932;DHT22;36257;46.052;12.540;2023-02-28T11:39:45;15.10;53.50
40932;DHT22;36257;46.052;12.540;2023-02-28T11:42:15;14.70;53.30
40932;DHT22;36257;46.052;12.540;2023-02-28T11:45:03;14.50;54.80
40932;DHT22;36257;46.052;12.540;2023-02-28T11:55:36;14.40;56.40
40932;DHT22;36257;46.052;12.540;2023-02-28T12:18:00;13.90;56.70
40932;DHT22;36257;46.052;12.540;2023-02-28T12:20:35;14.20;57.60
40932;DHT22;36257;46.052;12.540;2023-02-28T12:28:46;14.80;56.00
40932;DHT22;36257;46.052;12.540;2023-02-28T12:31:38;15.10;56.50
40932;DHT22;36257;46.052;12.540;2023-02-28T12:34:11;15.30;54.30
40932;DHT22;36257;46.052;12.540;2023-02-28T12:36:39;15.00;54.10
40932;DHT22;36257;46.052;12.540;2023-02-28T12:39:16;14.70;55.50
40932;DHT22;36257;46.052;12.540;2023-02-28T12:41:56;14.40;56.80
40932;DHT22;36257;46.052;12.540;2023-02-28T12:44:32;14.60;56.70
40932;DHT22;36257;46.052;12.540;2023-02-28T12:47:03;14.80;56.30
40932;DHT22;36257;46.052;12.540;2023-02-28T12:49:34;14.70;55.60
40932;DHT22;36257;46.052;12.540;2023-02-28T12:52:03;14.60;55.80
40932;DHT22;36257;46.052;12.540;2023-02-28T12:54:49;14.90;55.50
40932;DHT22;36257;46.052;12.540;2023-02-28T12:57:48;15.60;55.30
40932;DHT22;36257;46.052;12.540;2023-02-28T13:00:20;15.80;53.50
40932;DHT22;36257;46.052;12.540;2023-02-28T13:10:45;15.50;54.70
40932;DHT22;36257;46.052;12.540;2023-02-28T13:13:17;15.80;54.30
40932;DHT22;36257;46.052;12.540;2023-02-28T13:18:32;16.00;54.30
40932;DHT22;36257;46.052;12.540;2023-02-28T13:21:00;16.00;53.80
40932;DHT22;36257;46.052;12.540;2023-02-28T13:23:37;15.50;54.40
40932;DHT22;36257;46.052;12.540;2023-02-28T13:26:03;15.40;54.30
40932;DHT22;36257;46.052;12.540;2023-02-28T13:31:14;14.70;55.70
40932;DHT22;36257;46.052;12.540;2023-02-28T13:39:02;14.70;55.20
40932;DHT22;36257;46.052;12.540;2023-02-28T13:44:20;14.20;56.10
40932;DHT22;36257;46.052;12.540;2023-02-28T13:52:23;14.20;56.30
40932;DHT22;36257;46.052;12.540;2023-02-28T14:05:39;13.50;58.30
40932;DHT22;36257;46.052;12.540;2023-02-28T14:08:15;13.20;58.10
40932;DHT22;36257;46.052;12.540;2023-02-28T14:10:44;13.10;58.90
40932;DHT22;36257;46.052;12.540;2023-02-28T14:13:12;13.20;59.10
40932;DHT22;36257;46.052;12.540;2023-02-28T14:18:31;12.90;59.00
40932;DHT22;36257;46.052;12.540;2023-02-28T14:23:43;12.60;59.20
40932;DHT22;36257;46.052;12.540;2023-02-28T14:37:20;11.70;62.10
40932;DHT22;36257;46.052;12.540;2023-02-28T14:39:49;11.70;61.80
40932;DHT22;36257;46.052;12.540;2023-02-28T14:42:31;11.50;62.50
40932;DHT22;36257;46.052;12.540;2023-02-28T14:44:58;11.40;61.60
40932;DHT22;36257;46.052;12.540;2023-02-28T14:47:31;11.30;62.20
40932;DHT22;36257;46.052;12.540;2023-02-28T14:49:59;11.30;62.40
40932;DHT22;36257;46.052;12.540;2023-02-28T14:52:27;11.20;62.90
40932;DHT22;36257;46.052;12.540;2023-02-28T14:54:58;11.20;62.80
40932;DHT22;36257;46.052;12.540;2023-02-28T14:57:51;11.20;63.20
40932;DHT22;36257;46.052;12.540;2023-02-28T15:00:23;11.00;63.00
40932;DHT22;36257;46.052;12.540;2023-02-28T15:02:49;10.80;63.40
40932;DHT22;36257;46.052;12.540;2023-02-28T15:07:47;10.70;63.30
40932;DHT22;36257;46.052;12.540;2023-02-28T15:12:53;10.50;62.80
40932;DHT22;36257;46.052;12.540;2023-02-28T15:15:20;10.40;65.20
40932;DHT22;36257;46.052;12.540;2023-02-28T15:17:50;10.30;63.70
40932;DHT22;36257;46.052;12.540;2023-02-28T15:20:17;10.20;64.10
40932;DHT22;36257;46.052;12.540;2023-02-28T15:22:45;10.20;64.30
40932;DHT22;36257;46.052;12.540;2023-02-28T15:25:15;10.20;64.00
40932;DHT22;36257;46.052;12.540;2023-02-28T15:27:47;10.20;64.20
40932;DHT22;36257;46.052;12.540;2023-02-28T15:30:24;10.20;64.10
40932;DHT22;36257;46.052;12.540;2023-02-28T15:33:22;10.10;64.30
40932;DHT22;36257;46.052;12.540;2023-02-28T15:35:48;10.00;64.10
40932;DHT22;36257;46.052;12.540;2023-02-28T15:38:25;9.80;63.90
40932;DHT22;36257;46.052;12.540;2023-02-28T15:43:27;9.60;64.80
40932;DHT22;36257;46.052;12.540;2023-02-28T15:51:09;9.20;65.90
40932;DHT22;36257;46.052;12.540;2023-02-28T15:53:44;9.20;66.20
40932;DHT22;36257;46.052;12.540;2023-02-28T15:56:31;9.10;65.50
40932;DHT22;36257;46.052;12.540;2023-02-28T15:59:00;9.10;66.00
40932;DHT22;36257;46.052;12.540;2023-02-28T16:01:34;9.10;66.50
40932;DHT22;36257;46.052;12.540;2023-02-28T16:04:14;9.10;66.60
40932;DHT22;36257;46.052;12.540;2023-02-28T16:06:45;9.10;66.40
40932;DHT22;36257;46.052;12.540;2023-02-28T16:09:15;9.20;66.50
40932;DHT22;36257;46.052;12.540;2023-02-28T16:11:49;9.20;66.70
40932;DHT22;36257;46.052;12.540;2023-02-28T16:14:26;9.20;67.10
40932;DHT22;36257;46.052;12.540;2023-02-28T16:16:55;9.10;66.10
40932;DHT22;36257;46.052;12.540;2023-02-28T16:19:22;9.00;66.50
40932;DHT22;36257;46.052;12.540;2023-02-28T16:21:48;8.90;66.60
40932;DHT22;36257;46.052;12.540;2023-02-28T16:24:13;8.90;66.80
40932;DHT22;36257;46.052;12.540;2023-02-28T16:26:48;8.90;66.90
40932;DHT22;36257;46.052;12.540;2023-02-28T16:29:35;8.90;66.60
40932;DHT22;36257;46.052;12.540;2023-02-28T16:32:01;8.80;66.60
40932;DHT22;36257;46.052;12.540;2023-02-28T16:34:29;8.70;67.00
40932;DHT22;36257;46.052;12.540;2023-02-28T16:36:55;8.60;67.10
40932;DHT22;36257;46.052;12.540;2023-02-28T16:39:20;8.50;67.70
40932;DHT22;36257;46.052;12.540;2023-02-28T16:41:47;8.30;67.30
40932;DHT22;36257;46.052;12.540;2023-02-28T16:44:24;8.20;67.90
40932;DHT22;36257;46.052;12.540;2023-02-28T16:46:52;8.10;67.90
40932;DHT22;36257;46.052;12.540;2023-02-28T16:49:18;8.10;68.10
40932;DHT22;36257;46.052;12.540;2023-02-28T16:51:43;8.00;68.40
40932;DHT22;36257;46.052;12.540;2023-02-28T16:54:09;8.00;68.90
40932;DHT22;36257;46.052;12.540;2023-02-28T16:56:35;7.90;69.30
40932;DHT22;36257;46.052;12.540;2023-02-28T16:59:02;7.90;69.30
40932;DHT22;36257;46.052;12.540;2023-02-28T17:01:27;7.90;69.20
40932;DHT22;36257;46.052;12.540;2023-02-28T17:03:54;7.70;69.60
40932;DHT22;36257;46.052;12.540;2023-02-28T17:06:23;7.70;69.70
40932;DHT22;36257;46.052;12.540;2023-02-28T17:08:52;7.70;69.90
40932;DHT22;36257;46.052;12.540;2023-02-28T17:11:18;7.70;70.10
40932;DHT22;36257;46.052;12.540;2023-02-28T17:13:44;7.70;70.20
40932;DHT22;36257;46.052;12.540;2023-02-28T17:16:27;7.70;69.90
40932;DHT22;36257;46.052;12.540;2023-02-28T17:18:59;7.80;69.90
40932;DHT22;36257;46.052;12.540;2023-02-28T17:21:25;7.80;69.70
40932;DHT22;36257;46.052;12.540;2023-02-28T17:23:50;7.70;69.80
40932;DHT22;36257;46.052;12.540;2023-02-28T17:26:18;7.60;70.00
40932;DHT22;36257;46.052;12.540;2023-02-28T17:28:50;7.50;69.90
40932;DHT22;36257;46.052;12.540;2023-02-28T17:31:17;7.40;70.30
40932;DHT22;36257;46.052;12.540;2023-02-28T17:33:43;7.40;70.50
40932;DHT22;36257;46.052;12.540;2023-02-28T17:36:22;7.40;71.00
40932;DHT22;36257;46.052;12.540;2023-02-28T17:38:49;7.40;71.30
40932;DHT22;36257;46.052;12.540;2023-02-28T17:41:15;7.30;71.60
40932;DHT22;36257;46.052;12.540;2023-02-28T17:43:41;7.20;71.90
40932;DHT22;36257;46.052;12.540;2023-02-28T17:46:15;7.20;72.20
40932;DHT22;36257;46.052;12.540;2023-02-28T17:48:41;7.20;72.20
40932;DHT22;36257;46.052;12.540;2023-02-28T17:51:08;7.10;72.50
40932;DHT22;36257;46.052;12.540;2023-02-28T17:53:33;7.10;72.50
40932;DHT22;36257;46.052;12.540;2023-02-28T17:55:59;7.00;72.50
40932;DHT22;36257;46.052;12.540;2023-02-28T17:58:25;6.90;72.80
40932;DHT22;36257;46.052;12.540;2023-02-28T18:00:50;6.80;72.90
40932;DHT22;36257;46.052;12.540;2023-02-28T18:03:19;6.70;73.20
40932;DHT22;36257;46.052;12.540;2023-02-28T18:05:46;6.60;73.70
40932;DHT22;36257;46.052;12.540;2023-02-28T18:08:12;6.60;73.70
40932;DHT22;36257;46.052;12.540;2023-02-28T18:10:39;6.50;73.90
40932;DHT22;36257;46.052;12.540;2023-02-28T18:13:04;6.50;74.00
40932;DHT22;36257;46.052;12.540;2023-02-28T18:15:30;6.40;74.30
40932;DHT22;36257;46.052;12.540;2023-02-28T18:17:56;6.30;75.00
40932;DHT22;36257;46.052;12.540;2023-02-28T18:20:21;6.20;75.20
40932;DHT22;36257;46.052;12.540;2023-02-28T18:22:47;6.20;75.40
40932;DHT22;36257;46.052;12.540;2023-02-28T18:25:13;6.10;75.60